sensor_id;sensor_type;location;lat;lon;timestamp;P1;durP1;ratioP1;P2;durP2;ratioP2
24813;SDS011;12904;50.088;11.414;2022-10-13T00:00:29;36.03;;;14.15;;
24813;SDS011;12904;50.088;11.414;2022-10-13T00:02:57;33.70;;;14.65;;
24813;SDS011;12904;50.088;11.414;2022-10-13T00:05:24;17.10;;;13.68;;
24813;SDS011;12904;50.088;11.414;2022-10-13T00:07:50;15.00;;;13.50;;
24813;SDS011;12904;50.088;11.414;2022-10-13T00:10:16;28.40;;;13.40;;
24813;SDS011;12904;50.088;11.414;2022-10-13T00:12:41;21.75;;;12.90;;
24813;SDS011;12904;50.088;11.414;2022-10-13T00:15:07;18.42;;;15.57;;
24813;SDS011;12904;50.088;11.414;2022-10-13T00:17:33;18.75;;;15.48;;
24813;SDS011;12904;50.088;11.414;2022-10-13T00:20:00;25.00;;;15.30;;
24813;SDS011;12904;50.088;11.414;2022-10-13T00:22:29;18.88;;;13.73;;
24813;SDS011;12904;50.088;11.414;2022-10-13T00:24:55;13.82;;;11.43;;
24813;SDS011;12904;50.088;11.414;2022-10-13T00:27:20;12.98;;;10.63;;
24813;SDS011;12904;50.088;11.414;2022-10-13T00:29:46;13.50;;;12.20;;
24813;SDS011;12904;50.088;11.414;2022-10-13T00:32:12;12.32;;;11.02;;
24813;SDS011;12904;50.088;11.414;2022-10-13T00:34:37;14.85;;;11.98;;
24813;SDS011;12904;50.088;11.414;2022-10-13T00:37:03;19.05;;;11.27;;
24813;SDS011;12904;50.088;11.414;2022-10-13T00:39:29;27.80;;;11.18;;
24813;SDS011;12904;50.088;11.414;2022-10-13T00:41:56;16.42;;;12.63;;
24813;SDS011;12904;50.088;11.414;2022-10-13T00:47:30;12.57;;;11.38;;
24813;SDS011;12904;50.088;11.414;2022-10-13T00:50:06;19.03;;;14.40;;
24813;SDS011;12904;50.088;11.414;2022-10-13T00:52:38;16.85;;;12.90;;
24813;SDS011;12904;50.088;11.414;2022-10-13T00:55:05;21.23;;;13.32;;
24813;SDS011;12904;50.088;11.414;2022-10-13T00:57:33;15.27;;;12.90;;
24813;SDS011;12904;50.088;11.414;2022-10-13T01:00:00;22.20;;;14.30;;
24813;SDS011;12904;50.088;11.414;2022-10-13T01:02:29;13.88;;;12.50;;
24813;SDS011;12904;50.088;11.414;2022-10-13T01:04:56;18.23;;;13.82;;
24813;SDS011;12904;50.088;11.414;2022-10-13T01:07:23;14.25;;;12.75;;
24813;SDS011;12904;50.088;11.414;2022-10-13T01:09:49;18.20;;;13.82;;
24813;SDS011;12904;50.088;11.414;2022-10-13T01:15:05;21.30;;;16.33;;
24813;SDS011;12904;50.088;11.414;2022-10-13T01:17:42;18.80;;;15.80;;
24813;SDS011;12904;50.088;11.414;2022-10-13T01:28:29;18.08;;;13.18;;
24813;SDS011;12904;50.088;11.414;2022-10-13T01:31:09;11.52;;;10.38;;
24813;SDS011;12904;50.088;11.414;2022-10-13T01:33:40;10.35;;;9.43;;
24813;SDS011;12904;50.088;11.414;2022-10-13T01:39:23;16.58;;;10.20;;
24813;SDS011;12904;50.088;11.414;2022-10-13T01:41:48;91.10;;;11.15;;
24813;SDS011;12904;50.088;11.414;2022-10-13T01:44:25;262.58;;;14.82;;
24813;SDS011;12904;50.088;11.414;2022-10-13T01:46:56;100.22;;;11.77;;
24813;SDS011;12904;50.088;11.414;2022-10-13T01:49:23;54.58;;;11.52;;
24813;SDS011;12904;50.088;11.414;2022-10-13T01:51:54;15.75;;;11.02;;
24813;SDS011;12904;50.088;11.414;2022-10-13T01:54:23;105.65;;;13.10;;
24813;SDS011;12904;50.088;11.414;2022-10-13T01:56:52;15.98;;;11.95;;
24813;SDS011;12904;50.088;11.414;2022-10-13T01:59:19;16.07;;;12.63;;
24813;SDS011;12904;50.088;11.414;2022-10-13T02:02:04;14.02;;;12.50;;
24813;SDS011;12904;50.088;11.414;2022-10-13T02:11:12;26.80;;;14.85;;
24813;SDS011;12904;50.088;11.414;2022-10-13T02:13:42;21.98;;;15.15;;
24813;SDS011;12904;50.088;11.414;2022-10-13T02:16:16;21.85;;;15.68;;
24813;SDS011;12904;50.088;11.414;2022-10-13T02:18:45;18.52;;;15.40;;
24813;SDS011;12904;50.088;11.414;2022-10-13T02:21:11;26.75;;;16.63;;
24813;SDS011;12904;50.088;11.414;2022-10-13T02:23:39;22.83;;;17.02;;
24813;SDS011;12904;50.088;11.414;2022-10-13T02:26:07;25.02;;;17.38;;
24813;SDS011;12904;50.088;11.414;2022-10-13T02:28:33;21.75;;;18.65;;
24813;SDS011;12904;50.088;11.414;2022-10-13T02:31:01;27.90;;;19.38;;
24813;SDS011;12904;50.088;11.414;2022-10-13T02:33:28;23.48;;;18.33;;
24813;SDS011;12904;50.088;11.414;2022-10-13T02:35:53;35.95;;;19.13;;
24813;SDS011;12904;50.088;11.414;2022-10-13T02:38:19;28.27;;;18.48;;
24813;SDS011;12904;50.088;11.414;2022-10-13T02:40:44;31.67;;;18.23;;
24813;SDS011;12904;50.088;11.414;2022-10-13T02:43:10;38.20;;;19.77;;
24813;SDS011;12904;50.088;11.414;2022-10-13T02:45:36;34.13;;;19.10;;
24813;SDS011;12904;50.088;11.414;2022-10-13T02:48:01;33.95;;;19.70;;
24813;SDS011;12904;50.088;11.414;2022-10-13T02:50:27;28.13;;;18.92;;
24813;SDS011;12904;50.088;11.414;2022-10-13T02:52:53;33.65;;;20.42;;
24813;SDS011;12904;50.088;11.414;2022-10-13T02:55:19;34.45;;;19.60;;
24813;SDS011;12904;50.088;11.414;2022-10-13T02:57:45;27.55;;;19.75;;
24813;SDS011;12904;50.088;11.414;2022-10-13T03:00:11;31.70;;;19.48;;
24813;SDS011;12904;50.088;11.414;2022-10-13T03:02:37;43.92;;;23.48;;
24813;SDS011;12904;50.088;11.414;2022-10-13T03:05:03;39.97;;;23.13;;
24813;SDS011;12904;50.088;11.414;2022-10-13T03:07:28;44.30;;;22.42;;
24813;SDS011;12904;50.088;11.414;2022-10-13T03:09:54;38.17;;;20.65;;
24813;SDS011;12904;50.088;11.414;2022-10-13T03:12:20;40.38;;;21.30;;
24813;SDS011;12904;50.088;11.414;2022-10-13T03:14:46;41.90;;;21.63;;
24813;SDS011;12904;50.088;11.414;2022-10-13T03:17:11;44.30;;;21.17;;
24813;SDS011;12904;50.088;11.414;2022-10-13T03:19:37;37.90;;;20.63;;
24813;SDS011;12904;50.088;11.414;2022-10-13T03:22:02;36.08;;;20.52;;
24813;SDS011;12904;50.088;11.414;2022-10-13T03:24:28;39.88;;;20.85;;
24813;SDS011;12904;50.088;11.414;2022-10-13T03:26:54;44.25;;;21.70;;
24813;SDS011;12904;50.088;11.414;2022-10-13T03:29:19;38.70;;;21.85;;
24813;SDS011;12904;50.088;11.414;2022-10-13T03:31:46;47.70;;;23.13;;
24813;SDS011;12904;50.088;11.414;2022-10-13T03:34:12;40.20;;;20.42;;
24813;SDS011;12904;50.088;11.414;2022-10-13T03:36:40;40.30;;;21.30;;
24813;SDS011;12904;50.088;11.414;2022-10-13T03:39:05;35.15;;;21.80;;
24813;SDS011;12904;50.088;11.414;2022-10-13T03:41:31;40.78;;;21.73;;
24813;SDS011;12904;50.088;11.414;2022-10-13T03:43:57;34.85;;;21.05;;
24813;SDS011;12904;50.088;11.414;2022-10-13T03:46:23;39.58;;;20.02;;
24813;SDS011;12904;50.088;11.414;2022-10-13T03:48:52;67.82;;;38.30;;
24813;SDS011;12904;50.088;11.414;2022-10-13T03:51:18;53.17;;;28.50;;
24813;SDS011;12904;50.088;11.414;2022-10-13T03:53:47;45.40;;;23.00;;
24813;SDS011;12904;50.088;11.414;2022-10-13T03:56:15;30.05;;;20.50;;
24813;SDS011;12904;50.088;11.414;2022-10-13T03:58:43;36.85;;;21.48;;
24813;SDS011;12904;50.088;11.414;2022-10-13T04:01:09;33.78;;;19.40;;
24813;SDS011;12904;50.088;11.414;2022-10-13T04:03:37;48.78;;;22.52;;
24813;SDS011;12904;50.088;11.414;2022-10-13T04:06:03;38.33;;;20.08;;
24813;SDS011;12904;50.088;11.414;2022-10-13T04:08:30;36.13;;;19.20;;
24813;SDS011;12904;50.088;11.414;2022-10-13T04:10:58;35.42;;;18.92;;
24813;SDS011;12904;50.088;11.414;2022-10-13T04:13:28;29.75;;;19.83;;
24813;SDS011;12904;50.088;11.414;2022-10-13T04:15:54;37.03;;;20.70;;
24813;SDS011;12904;50.088;11.414;2022-10-13T04:18:19;39.25;;;21.13;;
24813;SDS011;12904;50.088;11.414;2022-10-13T04:20:45;43.22;;;23.63;;
24813;SDS011;12904;50.088;11.414;2022-10-13T04:23:11;53.08;;;26.25;;
24813;SDS011;12904;50.088;11.414;2022-10-13T04:25:37;45.42;;;25.85;;
24813;SDS011;12904;50.088;11.414;2022-10-13T04:28:03;47.92;;;25.45;;
24813;SDS011;12904;50.088;11.414;2022-10-13T04:30:31;34.38;;;21.15;;
24813;SDS011;12904;50.088;11.414;2022-10-13T04:32:57;50.03;;;22.80;;
24813;SDS011;12904;50.088;11.414;2022-10-13T04:35:23;46.38;;;24.23;;
24813;SDS011;12904;50.088;11.414;2022-10-13T04:37:49;35.92;;;22.27;;
24813;SDS011;12904;50.088;11.414;2022-10-13T04:40:15;42.83;;;21.77;;
24813;SDS011;12904;50.088;11.414;2022-10-13T04:42:40;39.40;;;21.70;;
24813;SDS011;12904;50.088;11.414;2022-10-13T04:45:06;51.30;;;23.73;;
24813;SDS011;12904;50.088;11.414;2022-10-13T04:47:33;44.40;;;21.60;;
24813;SDS011;12904;50.088;11.414;2022-10-13T04:49:59;50.20;;;27.63;;
24813;SDS011;12904;50.088;11.414;2022-10-13T04:52:25;41.80;;;22.90;;
24813;SDS011;12904;50.088;11.414;2022-10-13T04:54:50;35.95;;;21.15;;
24813;SDS011;12904;50.088;11.414;2022-10-13T04:57:16;51.25;;;25.15;;
24813;SDS011;12904;50.088;11.414;2022-10-13T04:59:41;48.20;;;24.05;;
24813;SDS011;12904;50.088;11.414;2022-10-13T05:02:07;37.15;;;22.50;;
24813;SDS011;12904;50.088;11.414;2022-10-13T05:04:34;42.28;;;21.42;;
24813;SDS011;12904;50.088;11.414;2022-10-13T05:07:00;31.73;;;20.77;;
24813;SDS011;12904;50.088;11.414;2022-10-13T05:09:25;41.47;;;21.85;;
24813;SDS011;12904;50.088;11.414;2022-10-13T05:11:51;42.63;;;22.30;;
24813;SDS011;12904;50.088;11.414;2022-10-13T05:14:19;38.08;;;21.02;;
24813;SDS011;12904;50.088;11.414;2022-10-13T05:16:45;41.33;;;24.27;;
24813;SDS011;12904;50.088;11.414;2022-10-13T05:19:11;55.25;;;26.83;;
24813;SDS011;12904;50.088;11.414;2022-10-13T05:21:37;56.97;;;26.38;;
24813;SDS011;12904;50.088;11.414;2022-10-13T05:24:03;59.70;;;28.42;;
24813;SDS011;12904;50.088;11.414;2022-10-13T05:26:30;65.95;;;28.55;;
24813;SDS011;12904;50.088;11.414;2022-10-13T05:28:59;65.80;;;29.17;;
24813;SDS011;12904;50.088;11.414;2022-10-13T05:31:26;53.83;;;26.42;;
24813;SDS011;12904;50.088;11.414;2022-10-13T05:33:53;66.22;;;28.60;;
24813;SDS011;12904;50.088;11.414;2022-10-13T05:38:59;49.53;;;26.25;;
24813;SDS011;12904;50.088;11.414;2022-10-13T05:41:29;57.90;;;27.52;;
24813;SDS011;12904;50.088;11.414;2022-10-13T05:43:56;63.63;;;29.33;;
24813;SDS011;12904;50.088;11.414;2022-10-13T05:46:24;58.83;;;27.48;;
24813;SDS011;12904;50.088;11.414;2022-10-13T05:48:49;67.40;;;25.48;;
24813;SDS011;12904;50.088;11.414;2022-10-13T05:51:23;67.55;;;28.65;;
24813;SDS011;12904;50.088;11.414;2022-10-13T05:53:59;58.33;;;28.38;;
24813;SDS011;12904;50.088;11.414;2022-10-13T05:56:41;55.67;;;26.48;;
24813;SDS011;12904;50.088;11.414;2022-10-13T05:59:15;49.15;;;26.23;;
24813;SDS011;12904;50.088;11.414;2022-10-13T06:01:42;49.75;;;25.13;;
24813;SDS011;12904;50.088;11.414;2022-10-13T06:04:11;61.17;;;27.15;;
24813;SDS011;12904;50.088;11.414;2022-10-13T06:06:41;58.03;;;26.75;;
24813;SDS011;12904;50.088;11.414;2022-10-13T06:09:06;54.28;;;26.33;;
24813;SDS011;12904;50.088;11.414;2022-10-13T06:11:33;53.05;;;26.83;;
24813;SDS011;12904;50.088;11.414;2022-10-13T06:13:58;51.45;;;25.10;;
24813;SDS011;12904;50.088;11.414;2022-10-13T06:16:24;44.03;;;25.98;;
24813;SDS011;12904;50.088;11.414;2022-10-13T06:18:49;54.50;;;27.17;;
24813;SDS011;12904;50.088;11.414;2022-10-13T06:21:15;54.85;;;25.55;;
24813;SDS011;12904;50.088;11.414;2022-10-13T06:23:41;45.55;;;25.10;;
24813;SDS011;12904;50.088;11.414;2022-10-13T06:26:06;37.80;;;23.02;;
24813;SDS011;12904;50.088;11.414;2022-10-13T06:28:33;42.28;;;23.73;;
24813;SDS011;12904;50.088;11.414;2022-10-13T06:30:59;53.05;;;25.75;;
24813;SDS011;12904;50.088;11.414;2022-10-13T06:33:27;47.42;;;24.80;;
24813;SDS011;12904;50.088;11.414;2022-10-13T06:35:53;53.58;;;23.92;;
24813;SDS011;12904;50.088;11.414;2022-10-13T06:38:19;39.90;;;22.63;;
24813;SDS011;12904;50.088;11.414;2022-10-13T06:40:44;52.58;;;22.70;;
24813;SDS011;12904;50.088;11.414;2022-10-13T06:43:10;44.78;;;22.70;;
24813;SDS011;12904;50.088;11.414;2022-10-13T06:45:35;44.47;;;23.75;;
24813;SDS011;12904;50.088;11.414;2022-10-13T06:48:01;39.58;;;23.58;;
24813;SDS011;12904;50.088;11.414;2022-10-13T06:50:27;46.80;;;25.35;;
24813;SDS011;12904;50.088;11.414;2022-10-13T06:52:54;46.42;;;24.45;;
24813;SDS011;12904;50.088;11.414;2022-10-13T06:55:20;44.20;;;23.95;;
24813;SDS011;12904;50.088;11.414;2022-10-13T06:57:46;42.58;;;23.95;;
24813;SDS011;12904;50.088;11.414;2022-10-13T07:00:12;46.63;;;24.20;;
24813;SDS011;12904;50.088;11.414;2022-10-13T07:02:37;37.13;;;22.67;;
24813;SDS011;12904;50.088;11.414;2022-10-13T07:05:03;41.28;;;23.38;;
24813;SDS011;12904;50.088;11.414;2022-10-13T07:07:29;37.20;;;23.17;;
24813;SDS011;12904;50.088;11.414;2022-10-13T07:09:55;42.17;;;24.33;;
24813;SDS011;12904;50.088;11.414;2022-10-13T07:12:20;41.03;;;23.00;;
24813;SDS011;12904;50.088;11.414;2022-10-13T07:14:46;38.97;;;22.55;;
24813;SDS011;12904;50.088;11.414;2022-10-13T07:17:12;40.53;;;23.55;;
24813;SDS011;12904;50.088;11.414;2022-10-13T07:19:38;41.88;;;23.40;;
24813;SDS011;12904;50.088;11.414;2022-10-13T07:22:03;44.70;;;24.95;;
24813;SDS011;12904;50.088;11.414;2022-10-13T07:24:29;41.83;;;22.88;;
24813;SDS011;12904;50.088;11.414;2022-10-13T07:26:55;35.03;;;21.92;;
24813;SDS011;12904;50.088;11.414;2022-10-13T07:29:20;35.65;;;21.95;;
24813;SDS011;12904;50.088;11.414;2022-10-13T07:31:46;34.13;;;20.50;;
24813;SDS011;12904;50.088;11.414;2022-10-13T07:34:12;41.92;;;19.85;;
24813;SDS011;12904;50.088;11.414;2022-10-13T07:36:39;45.00;;;23.02;;
24813;SDS011;12904;50.088;11.414;2022-10-13T07:39:06;37.25;;;20.55;;
24813;SDS011;12904;50.088;11.414;2022-10-13T07:41:35;38.60;;;20.02;;
24813;SDS011;12904;50.088;11.414;2022-10-13T07:44:01;37.22;;;20.63;;
24813;SDS011;12904;50.088;11.414;2022-10-13T07:46:27;32.05;;;19.70;;
24813;SDS011;12904;50.088;11.414;2022-10-13T07:48:53;39.75;;;22.13;;
24813;SDS011;12904;50.088;11.414;2022-10-13T07:51:19;36.15;;;20.35;;
24813;SDS011;12904;50.088;11.414;2022-10-13T07:53:46;38.10;;;20.33;;
24813;SDS011;12904;50.088;11.414;2022-10-13T07:56:12;39.03;;;22.67;;
24813;SDS011;12904;50.088;11.414;2022-10-13T07:58:41;42.97;;;25.15;;
24813;SDS011;12904;50.088;11.414;2022-10-13T08:01:08;39.50;;;21.10;;
24813;SDS011;12904;50.088;11.414;2022-10-13T08:03:34;32.83;;;21.08;;
24813;SDS011;12904;50.088;11.414;2022-10-13T08:06:01;40.60;;;20.85;;
24813;SDS011;12904;50.088;11.414;2022-10-13T08:08:28;33.67;;;22.50;;
24813;SDS011;12904;50.088;11.414;2022-10-13T08:10:54;38.67;;;22.23;;
24813;SDS011;12904;50.088;11.414;2022-10-13T08:13:24;30.77;;;19.85;;
24813;SDS011;12904;50.088;11.414;2022-10-13T08:15:50;39.85;;;21.25;;
24813;SDS011;12904;50.088;11.414;2022-10-13T08:18:16;36.33;;;20.63;;
24813;SDS011;12904;50.088;11.414;2022-10-13T08:20:42;39.10;;;21.83;;
24813;SDS011;12904;50.088;11.414;2022-10-13T08:23:09;31.92;;;20.30;;
24813;SDS011;12904;50.088;11.414;2022-10-13T08:25:39;33.03;;;20.33;;
24813;SDS011;12904;50.088;11.414;2022-10-13T08:30:50;35.28;;;21.52;;
24813;SDS011;12904;50.088;11.414;2022-10-13T08:33:17;37.35;;;21.88;;
24813;SDS011;12904;50.088;11.414;2022-10-13T08:35:44;43.65;;;22.65;;
24813;SDS011;12904;50.088;11.414;2022-10-13T08:38:10;35.00;;;20.63;;
24813;SDS011;12904;50.088;11.414;2022-10-13T08:40:36;31.00;;;21.77;;
24813;SDS011;12904;50.088;11.414;2022-10-13T08:43:06;36.53;;;22.05;;
24813;SDS011;12904;50.088;11.414;2022-10-13T08:45:36;37.05;;;21.77;;
24813;SDS011;12904;50.088;11.414;2022-10-13T08:48:02;36.53;;;21.00;;
24813;SDS011;12904;50.088;11.414;2022-10-13T08:50:34;35.63;;;21.85;;
24813;SDS011;12904;50.088;11.414;2022-10-13T08:53:08;34.33;;;21.38;;
24813;SDS011;12904;50.088;11.414;2022-10-13T08:55:48;36.13;;;22.42;;
24813;SDS011;12904;50.088;11.414;2022-10-13T09:00:45;41.78;;;21.95;;
24813;SDS011;12904;50.088;11.414;2022-10-13T09:08:42;1999.90;;;999.90;;
24813;SDS011;12904;50.088;11.414;2022-10-13T09:11:12;1999.90;;;999.90;;
24813;SDS011;12904;50.088;11.414;2022-10-13T09:13:38;1999.90;;;999.90;;
24813;SDS011;12904;50.088;11.414;2022-10-13T09:16:04;106.10;;;20.73;;
24813;SDS011;12904;50.088;11.414;2022-10-13T09:18:31;1999.90;;;999.90;;
24813;SDS011;12904;50.088;11.414;2022-10-13T09:21:07;47.30;;;27.85;;
24813;SDS011;12904;50.088;11.414;2022-10-13T09:24:03;1999.90;;;999.90;;
24813;SDS011;12904;50.088;11.414;2022-10-13T09:26:31;1999.90;;;999.90;;
24813;SDS011;12904;50.088;11.414;2022-10-13T09:31:35;1999.90;;;999.90;;
24813;SDS011;12904;50.088;11.414;2022-10-13T09:34:05;1999.90;;;999.90;;
24813;SDS011;12904;50.088;11.414;2022-10-13T09:37:02;1542.93;;;769.97;;
24813;SDS011;12904;50.088;11.414;2022-10-13T09:39:30;1999.90;;;999.90;;
24813;SDS011;12904;50.088;11.414;2022-10-13T09:45:01;1999.90;;;999.90;;
24813;SDS011;12904;50.088;11.414;2022-10-13T09:47:38;1999.90;;;999.90;;
24813;SDS011;12904;50.088;11.414;2022-10-13T09:53:29;1999.90;;;999.90;;
24813;SDS011;12904;50.088;11.414;2022-10-13T09:56:08;1999.90;;;999.90;;
24813;SDS011;12904;50.088;11.414;2022-10-13T10:01:43;134.80;;;34.72;;
24813;SDS011;12904;50.088;11.414;2022-10-13T10:04:15;64.88;;;31.48;;
24813;SDS011;12904;50.088;11.414;2022-10-13T10:06:44;60.17;;;30.33;;
24813;SDS011;12904;50.088;11.414;2022-10-13T10:09:32;69.32;;;31.98;;
24813;SDS011;12904;50.088;11.414;2022-10-13T10:11:57;70.82;;;32.90;;
24813;SDS011;12904;50.088;11.414;2022-10-13T10:14:25;58.92;;;29.13;;
24813;SDS011;12904;50.088;11.414;2022-10-13T10:22:59;66.07;;;27.13;;
24813;SDS011;12904;50.088;11.414;2022-10-13T10:25:48;57.35;;;27.90;;
24813;SDS011;12904;50.088;11.414;2022-10-13T10:28:24;63.63;;;29.48;;
24813;SDS011;12904;50.088;11.414;2022-10-13T10:31:03;58.75;;;28.17;;
24813;SDS011;12904;50.088;11.414;2022-10-13T10:33:51;52.28;;;28.48;;
24813;SDS011;12904;50.088;11.414;2022-10-13T10:45:21;54.92;;;24.90;;
24813;SDS011;12904;50.088;11.414;2022-10-13T10:47:52;53.55;;;25.88;;
24813;SDS011;12904;50.088;11.414;2022-10-13T10:50:20;50.33;;;24.33;;
24813;SDS011;12904;50.088;11.414;2022-10-13T10:53:12;44.25;;;22.60;;
24813;SDS011;12904;50.088;11.414;2022-10-13T10:55:46;51.05;;;26.45;;
24813;SDS011;12904;50.088;11.414;2022-10-13T11:03:45;53.53;;;27.27;;
24813;SDS011;12904;50.088;11.414;2022-10-13T11:06:35;67.38;;;28.13;;
24813;SDS011;12904;50.088;11.414;2022-10-13T11:09:03;62.83;;;27.10;;
24813;SDS011;12904;50.088;11.414;2022-10-13T11:11:31;57.50;;;27.23;;
24813;SDS011;12904;50.088;11.414;2022-10-13T11:32:43;44.20;;;20.73;;
24813;SDS011;12904;50.088;11.414;2022-10-13T11:40:34;40.00;;;20.45;;
24813;SDS011;12904;50.088;11.414;2022-10-13T11:56:56;32.05;;;18.52;;
24813;SDS011;12904;50.088;11.414;2022-10-13T12:01:53;38.60;;;19.30;;
24813;SDS011;12904;50.088;11.414;2022-10-13T12:04:24;39.83;;;20.10;;
24813;SDS011;12904;50.088;11.414;2022-10-13T12:06:53;44.28;;;21.90;;
24813;SDS011;12904;50.088;11.414;2022-10-13T12:09:24;40.97;;;21.27;;
24813;SDS011;12904;50.088;11.414;2022-10-13T12:14:28;43.53;;;22.75;;
24813;SDS011;12904;50.088;11.414;2022-10-13T12:17:16;44.33;;;20.48;;
24813;SDS011;12904;50.088;11.414;2022-10-13T12:19:42;36.67;;;20.50;;
24813;SDS011;12904;50.088;11.414;2022-10-13T12:22:12;43.50;;;21.95;;
24813;SDS011;12904;50.088;11.414;2022-10-13T12:24:39;35.92;;;20.27;;
24813;SDS011;12904;50.088;11.414;2022-10-13T12:27:16;39.72;;;21.33;;
24813;SDS011;12904;50.088;11.414;2022-10-13T12:29:45;34.08;;;19.90;;
24813;SDS011;12904;50.088;11.414;2022-10-13T12:32:22;37.22;;;19.65;;
24813;SDS011;12904;50.088;11.414;2022-10-13T12:34:49;31.10;;;18.48;;
24813;SDS011;12904;50.088;11.414;2022-10-13T12:39:50;41.33;;;20.05;;
24813;SDS011;12904;50.088;11.414;2022-10-13T12:42:16;35.85;;;19.83;;
24813;SDS011;12904;50.088;11.414;2022-10-13T12:44:43;36.05;;;19.10;;
24813;SDS011;12904;50.088;11.414;2022-10-13T12:52:51;30.08;;;18.42;;
24813;SDS011;12904;50.088;11.414;2022-10-13T12:55:57;29.58;;;18.20;;
24813;SDS011;12904;50.088;11.414;2022-10-13T12:58:26;32.08;;;16.70;;
24813;SDS011;12904;50.088;11.414;2022-10-13T13:00:55;32.25;;;16.35;;
24813;SDS011;12904;50.088;11.414;2022-10-13T13:03:25;28.50;;;16.75;;
24813;SDS011;12904;50.088;11.414;2022-10-13T13:06:06;30.80;;;15.80;;
24813;SDS011;12904;50.088;11.414;2022-10-13T13:09:13;28.98;;;15.00;;
24813;SDS011;12904;50.088;11.414;2022-10-13T13:11:44;25.40;;;14.93;;
24813;SDS011;12904;50.088;11.414;2022-10-13T13:19:42;21.00;;;12.70;;
24813;SDS011;12904;50.088;11.414;2022-10-13T13:22:09;24.73;;;13.68;;
24813;SDS011;12904;50.088;11.414;2022-10-13T13:24:35;21.63;;;13.05;;
24813;SDS011;12904;50.088;11.414;2022-10-13T13:27:06;19.73;;;13.93;;
24813;SDS011;12904;50.088;11.414;2022-10-13T13:29:43;15.57;;;12.57;;
24813;SDS011;12904;50.088;11.414;2022-10-13T13:32:13;19.85;;;12.32;;
24813;SDS011;12904;50.088;11.414;2022-10-13T13:34:40;17.15;;;12.00;;
24813;SDS011;12904;50.088;11.414;2022-10-13T13:37:08;21.90;;;12.13;;
24813;SDS011;12904;50.088;11.414;2022-10-13T13:39:40;16.65;;;10.90;;
24813;SDS011;12904;50.088;11.414;2022-10-13T13:42:08;16.58;;;11.90;;
24813;SDS011;12904;50.088;11.414;2022-10-13T13:44:38;17.08;;;11.57;;
24813;SDS011;12904;50.088;11.414;2022-10-13T13:47:03;14.10;;;12.43;;
24813;SDS011;12904;50.088;11.414;2022-10-13T13:49:32;17.65;;;12.25;;
24813;SDS011;12904;50.088;11.414;2022-10-13T13:51:58;18.15;;;12.43;;
24813;SDS011;12904;50.088;11.414;2022-10-13T13:54:23;18.10;;;11.45;;
24813;SDS011;12904;50.088;11.414;2022-10-13T13:56:49;16.63;;;11.60;;
24813;SDS011;12904;50.088;11.414;2022-10-13T13:59:15;14.55;;;11.25;;
24813;SDS011;12904;50.088;11.414;2022-10-13T14:01:40;16.50;;;11.82;;
24813;SDS011;12904;50.088;11.414;2022-10-13T14:04:06;17.13;;;12.40;;
24813;SDS011;12904;50.088;11.414;2022-10-13T14:06:31;14.43;;;12.23;;
24813;SDS011;12904;50.088;11.414;2022-10-13T14:08:57;16.23;;;11.48;;
24813;SDS011;12904;50.088;11.414;2022-10-13T14:11:22;15.07;;;11.43;;
24813;SDS011;12904;50.088;11.414;2022-10-13T14:13:48;18.38;;;10.70;;
24813;SDS011;12904;50.088;11.414;2022-10-13T14:16:14;18.55;;;11.30;;
24813;SDS011;12904;50.088;11.414;2022-10-13T14:18:41;18.60;;;11.43;;
24813;SDS011;12904;50.088;11.414;2022-10-13T14:21:07;19.77;;;11.27;;
24813;SDS011;12904;50.088;11.414;2022-10-13T14:23:33;13.93;;;11.32;;
24813;SDS011;12904;50.088;11.414;2022-10-13T14:26:03;20.33;;;11.25;;
24813;SDS011;12904;50.088;11.414;2022-10-13T14:28:30;17.35;;;12.32;;
24813;SDS011;12904;50.088;11.414;2022-10-13T14:30:56;16.73;;;11.65;;
24813;SDS011;12904;50.088;11.414;2022-10-13T14:33:21;19.23;;;12.20;;
24813;SDS011;12904;50.088;11.414;2022-10-13T14:35:47;23.25;;;12.98;;
24813;SDS011;12904;50.088;11.414;2022-10-13T14:38:13;17.10;;;13.35;;
24813;SDS011;12904;50.088;11.414;2022-10-13T14:40:39;16.38;;;12.63;;
24813;SDS011;12904;50.088;11.414;2022-10-13T14:43:06;23.52;;;11.82;;
24813;SDS011;12904;50.088;11.414;2022-10-13T14:45:31;15.98;;;13.60;;
24813;SDS011;12904;50.088;11.414;2022-10-13T14:47:57;27.75;;;13.30;;
24813;SDS011;12904;50.088;11.414;2022-10-13T14:50:22;19.45;;;12.73;;
24813;SDS011;12904;50.088;11.414;2022-10-13T14:52:48;18.10;;;12.70;;
24813;SDS011;12904;50.088;11.414;2022-10-13T14:55:14;13.02;;;11.63;;
24813;SDS011;12904;50.088;11.414;2022-10-13T14:57:39;16.77;;;12.75;;
24813;SDS011;12904;50.088;11.414;2022-10-13T15:00:05;17.83;;;13.30;;
24813;SDS011;12904;50.088;11.414;2022-10-13T15:02:31;13.60;;;12.30;;
24813;SDS011;12904;50.088;11.414;2022-10-13T15:04:58;1236.75;;;101.38;;
24813;SDS011;12904;50.088;11.414;2022-10-13T15:07:23;16.15;;;11.93;;
24813;SDS011;12904;50.088;11.414;2022-10-13T15:09:49;19.10;;;12.90;;
24813;SDS011;12904;50.088;11.414;2022-10-13T15:12:15;19.08;;;12.00;;
24813;SDS011;12904;50.088;11.414;2022-10-13T15:14:40;17.05;;;12.60;;
24813;SDS011;12904;50.088;11.414;2022-10-13T15:17:06;19.73;;;13.40;;
24813;SDS011;12904;50.088;11.414;2022-10-13T15:19:31;18.23;;;13.38;;
24813;SDS011;12904;50.088;11.414;2022-10-13T15:21:57;19.42;;;14.05;;
24813;SDS011;12904;50.088;11.414;2022-10-13T15:24:22;15.23;;;13.30;;
24813;SDS011;12904;50.088;11.414;2022-10-13T15:26:48;18.55;;;13.45;;
24813;SDS011;12904;50.088;11.414;2022-10-13T15:29:14;22.33;;;13.18;;
24813;SDS011;12904;50.088;11.414;2022-10-13T15:31:39;18.80;;;14.43;;
24813;SDS011;12904;50.088;11.414;2022-10-13T15:34:05;18.75;;;13.98;;
24813;SDS011;12904;50.088;11.414;2022-10-13T15:36:30;14.75;;;13.20;;
24813;SDS011;12904;50.088;11.414;2022-10-13T15:38:56;22.20;;;15.27;;
24813;SDS011;12904;50.088;11.414;2022-10-13T15:41:21;17.48;;;13.20;;
24813;SDS011;12904;50.088;11.414;2022-10-13T15:43:48;21.00;;;14.32;;
24813;SDS011;12904;50.088;11.414;2022-10-13T15:46:14;1999.90;;;999.90;;
24813;SDS011;12904;50.088;11.414;2022-10-13T15:48:49;1999.90;;;999.90;;
24813;SDS011;12904;50.088;11.414;2022-10-13T15:51:16;1999.90;;;999.90;;
24813;SDS011;12904;50.088;11.414;2022-10-13T15:53:43;1999.90;;;999.90;;
24813;SDS011;12904;50.088;11.414;2022-10-13T15:56:10;1999.90;;;999.90;;
24813;SDS011;12904;50.088;11.414;2022-10-13T15:58:35;1999.90;;;999.90;;
24813;SDS011;12904;50.088;11.414;2022-10-13T16:01:08;1999.90;;;999.90;;
24813;SDS011;12904;50.088;11.414;2022-10-13T16:03:35;1999.90;;;999.90;;
24813;SDS011;12904;50.088;11.414;2022-10-13T16:06:02;1999.90;;;999.90;;
24813;SDS011;12904;50.088;11.414;2022-10-13T16:08:29;1999.90;;;999.90;;
24813;SDS011;12904;50.088;11.414;2022-10-13T16:10:54;1999.90;;;999.90;;
24813;SDS011;12904;50.088;11.414;2022-10-13T16:13:20;1999.90;;;999.90;;
24813;SDS011;12904;50.088;11.414;2022-10-13T16:15:55;1999.90;;;999.90;;
24813;SDS011;12904;50.088;11.414;2022-10-13T16:18:31;1999.90;;;999.90;;